Terminal Aerodrome Forecast
Issued by NWS

Home | Current Version | Previous Version | Text Only | Print | Product List | Glossary On
Versions: 1 2 3 4 5 6 7 8 9 10 11 12 13 14 15 16 17 18 19 20 21
000
FTUS45 KCYS 050522
TAFLAR
TAF
KLAR 050522Z 0506/0606 24028G40KT P6SM BKN100 BKN150
     FM051500 28025G35KT P6SM VCSH BKN050 OVC100
     FM060000 30015G25KT P6SM SCT150=

USA.gov is the U.S. government's official web portal to all federal, state and local government web resources and services.